aviador You're here:

YSWG Decoded Metar

WAGGA WAGGA in AUSTRALIA
Report Time2017-12-17 00:00:00
UTC Time2017-12-17 00:26:29
Flight Rules vfr VFR
Wind060° at 08 kt
W.Decomp.*RWY 05: 8.0 kt HW 0.3 kt LCW
RWY 12: 2.5 kt HW 7.6 kt LCW
W.Rank060° ranks 8
Current wind is above 060° avg. (6.7)
Visibility9999 m
Phenomena:N/A
Clouds:N/A
Expected CloudBase > 6,000 ft AGL from Temp-Dew spread
CeilingNone
Temp31°C (ISA +17)
Dew Point16°C (40% RH)
Heat Index30.9°C
AAT30.0°C
QNH1013 hPa
Density Alt2,930 ft
Elevation699 ft
Report Wrong Elevation
Raw Report
YSWG 170000Z AUTO 06008KT 9999 // NCD 31/16 Q1013=

Extra information for YSWG:More info

Metar Taf Metar & Taf Last 4 Metars F.Rules Stats Wind Profile Meteogram Temp Stats Airport Information Weather charts Add Link Nearby VenuesMetar ALERT Operation Metar Decoded Social comments